createdAt,value
2022-10-09T00:03:07.615Z,1.00
2022-10-09T00:08:10.556Z,0.75
2022-10-09T00:13:14.556Z,3.00
2022-10-09T00:18:19.359Z,2.00
2022-10-09T00:23:21.983Z,2.50
2022-10-09T00:28:28.576Z,1.50
2022-10-09T00:33:31.168Z,2.00
2022-10-09T00:38:34.362Z,2.00
2022-10-09T00:43:45.457Z,1.50
2022-10-09T00:48:53.082Z,2.50
2022-10-09T00:53:55.907Z,0.50
2022-10-09T00:59:00.944Z,1.25
2022-10-09T01:04:03.504Z,1.25
2022-10-09T01:09:10.243Z,1.00
2022-10-09T01:14:22.034Z,2.00
2022-10-09T01:19:41.939Z,1.25
2022-10-09T01:24:51.168Z,2.75
2022-10-09T01:29:58.133Z,1.00
2022-10-09T01:35:02.960Z,1.75
2022-10-09T01:40:08.270Z,1.50
2022-10-09T01:45:13.097Z,1.00
2022-10-09T01:50:24.450Z,1.00
2022-10-09T01:55:37.266Z,1.50
2022-10-09T02:00:46.779Z,1.75
2022-10-09T02:05:52.694Z,1.75
2022-10-09T02:10:59.138Z,1.75
2022-10-09T02:16:10.448Z,1.00
2022-10-09T02:21:20.810Z,2.50
2022-10-09T02:26:24.076Z,1.25
2022-10-09T02:31:30.173Z,1.00
2022-10-09T02:36:33.915Z,1.25
2022-10-09T02:41:36.959Z,2.00
2022-10-09T02:46:40.998Z,1.25
2022-10-09T02:51:43.636Z,2.25
2022-10-09T02:56:46.368Z,2.00
2022-10-09T03:01:50.526Z,1.00
2022-10-09T03:06:53.180Z,1.25
2022-10-09T03:11:55.886Z,1.00
2022-10-09T03:16:59.825Z,2.00
2022-10-09T03:22:02.501Z,1.25
2022-10-09T03:27:05.221Z,2.00
2022-10-09T03:32:09.192Z,1.00
2022-10-09T03:37:11.877Z,1.00
2022-10-09T03:42:14.487Z,1.00
2022-10-09T03:47:18.643Z,0.50
2022-10-09T03:52:21.241Z,1.00
2022-10-09T03:57:23.814Z,0.50
2022-10-09T04:02:27.948Z,2.00
2022-10-09T04:07:30.537Z,1.00
2022-10-09T04:12:33.153Z,1.00
2022-10-09T04:17:37.574Z,1.50
2022-10-09T04:22:40.225Z,1.25
2022-10-09T04:27:42.819Z,2.50
2022-10-09T04:32:48.198Z,2.50
2022-10-09T04:37:51.233Z,1.25
2022-10-09T04:42:53.815Z,1.50
2022-10-09T04:47:57.774Z,1.50
2022-10-09T04:53:00.404Z,1.25
2022-10-09T04:58:02.989Z,1.00
2022-10-09T05:03:06.996Z,2.00
2022-10-09T05:08:09.689Z,1.00
2022-10-09T05:13:12.258Z,0.00
2022-10-09T05:18:16.175Z,1.00
2022-10-09T05:23:18.821Z,2.00
2022-10-09T05:28:21.506Z,2.00
2022-10-09T05:33:25.486Z,1.00
2022-10-09T05:38:28.960Z,1.50
2022-10-09T05:43:33.699Z,2.00
2022-10-09T05:48:38.353Z,1.00
2022-10-09T05:53:42.713Z,1.75
2022-10-09T05:58:46.487Z,1.50
2022-10-09T06:03:52.183Z,1.25
2022-10-09T06:08:55.129Z,0.25
2022-10-09T06:13:57.908Z,1.00
2022-10-09T06:19:02.571Z,1.00
2022-10-09T06:24:06.533Z,1.25
2022-10-09T06:29:10.054Z,2.00
2022-10-09T06:34:14.024Z,1.25
2022-10-09T06:39:16.911Z,0.25
2022-10-09T06:44:19.604Z,1.00
2022-10-09T06:49:23.544Z,1.00
2022-10-09T06:54:26.134Z,0.25
2022-10-09T06:59:29.158Z,2.00
2022-10-09T07:04:33.396Z,1.00
2022-10-09T07:09:36.180Z,2.00
2022-10-09T07:14:38.745Z,0.75
2022-10-09T07:19:42.736Z,2.00
2022-10-09T07:24:45.336Z,2.75
2022-10-09T07:29:48.039Z,2.00
2022-10-09T07:34:52.197Z,2.00
2022-10-09T07:39:54.828Z,3.50
2022-10-09T07:44:57.412Z,1.50
2022-10-09T07:50:01.321Z,10.25
2022-10-09T07:55:04.280Z,9.00
2022-10-09T08:00:08.420Z,9.75
2022-10-09T08:05:16.494Z,5.75
2022-10-09T08:10:19.151Z,6.50
2022-10-09T08:15:21.750Z,9.00
2022-10-09T08:20:25.709Z,7.75
2022-10-09T08:25:28.845Z,5.50
2022-10-09T08:30:32.033Z,7.00
2022-10-09T08:35:36.017Z,5.00
2022-10-09T08:40:46.200Z,6.50
2022-10-09T08:45:50.708Z,6.50
2022-10-09T08:50:57.803Z,6.00
2022-10-09T08:56:02.759Z,6.50
2022-10-09T09:01:14.497Z,6.75
2022-10-09T09:06:28.886Z,6.25
2022-10-09T09:11:40.854Z,5.00
2022-10-09T09:16:52.975Z,4.50
2022-10-09T09:21:59.338Z,4.00
2022-10-09T09:27:11.300Z,5.75
2022-10-09T09:32:20.137Z,5.33
2022-10-09T09:37:25.064Z,5.00
2022-10-09T09:42:28.942Z,4.00
2022-10-09T09:47:35.798Z,5.25
2022-10-09T09:52:44.553Z,5.00
2022-10-09T09:57:47.494Z,3.50
2022-10-09T10:02:51.925Z,4.00
2022-10-09T10:07:57.556Z,4.00
2022-10-09T10:13:01.426Z,4.00
2022-10-09T10:18:06.282Z,5.00
2022-10-09T10:23:24.256Z,3.50
2022-10-09T10:28:35.011Z,3.00
2022-10-09T10:33:39.178Z,2.50
2022-10-09T10:38:50.206Z,2.75
2022-10-09T10:43:58.474Z,4.25
2022-10-09T10:49:01.561Z,5.50
2022-10-09T10:54:18.211Z,3.50
2022-10-09T10:59:33.860Z,4.50
2022-10-09T11:04:48.189Z,4.25
2022-10-09T11:10:03.278Z,3.50
2022-10-09T11:15:30.747Z,3.25
2022-10-09T11:21:12.099Z,5.00
2022-10-09T11:26:26.399Z,3.25
2022-10-09T11:31:34.461Z,3.75
2022-10-09T11:36:42.266Z,4.00
2022-10-09T11:41:48.314Z,3.25
2022-10-09T11:47:02.202Z,5.00
2022-10-09T11:52:17.748Z,4.00
2022-10-09T11:57:30.107Z,4.50
2022-10-09T12:02:33.180Z,3.00
2022-10-09T12:12:57.355Z,2.50
2022-10-09T12:17:59.990Z,2.75
2022-10-09T12:23:25.785Z,3.00
2022-10-09T12:28:32.095Z,3.50
2022-10-09T12:33:40.360Z,2.00
2022-10-09T12:38:43.834Z,1.00
2022-10-09T12:43:49.002Z,2.25
2022-10-09T12:48:52.119Z,2.50
2022-10-09T12:53:55.603Z,1.25
2022-10-09T12:59:00.542Z,1.25
2022-10-09T13:04:04.659Z,2.75
2022-10-09T13:09:16.289Z,1.00
2022-10-09T13:14:34.138Z,1.75
2022-10-09T13:19:37.124Z,1.00
2022-10-09T13:24:39.784Z,0.50
2022-10-09T13:29:44.425Z,2.50
2022-10-09T13:34:47.534Z,1.50
2022-10-09T13:39:52.819Z,1.00
2022-10-09T13:44:56.861Z,1.00
2022-10-09T13:49:59.539Z,1.00
2022-10-09T13:55:02.239Z,0.50
2022-10-09T14:00:07.777Z,2.00
2022-10-09T14:05:16.341Z,1.00
2022-10-09T14:10:23.023Z,0.00
2022-10-09T14:15:27.920Z,2.00
2022-10-09T14:20:30.612Z,1.00
2022-10-09T14:25:35.489Z,1.00
2022-10-09T14:30:42.212Z,0.50
2022-10-09T14:35:44.772Z,0.00
2022-10-09T14:40:47.523Z,1.00
2022-10-09T14:45:51.516Z,0.00
2022-10-09T14:50:54.167Z,0.00
2022-10-09T14:55:56.739Z,1.00
2022-10-09T15:01:01.313Z,0.00
2022-10-09T15:06:06.807Z,0.25
2022-10-09T15:11:10.863Z,1.00
2022-10-09T15:16:16.797Z,0.75
2022-10-09T15:21:22.222Z,1.00
2022-10-09T15:26:26.128Z,1.00
2022-10-09T15:31:31.883Z,1.00
2022-10-09T15:36:37.263Z,1.00
2022-10-09T15:41:41.732Z,0.00
2022-10-09T15:46:47.719Z,1.00
2022-10-09T15:51:50.383Z,0.50
2022-10-09T15:56:54.368Z,2.00
2022-10-09T16:01:58.347Z,1.00
2022-10-09T16:07:01.001Z,0.75
2022-10-09T16:12:03.899Z,2.00
2022-10-09T16:17:11.302Z,1.00
2022-10-09T16:22:14.750Z,3.00
2022-10-09T16:27:17.473Z,2.00
2022-10-09T16:32:22.004Z,2.50
2022-10-09T16:37:24.745Z,1.75
2022-10-09T16:42:27.494Z,1.00
2022-10-09T16:47:31.734Z,2.00
2022-10-09T16:52:34.519Z,2.50
2022-10-09T16:57:37.108Z,2.50
2022-10-09T17:02:41.159Z,2.50
2022-10-09T17:07:43.743Z,1.75
2022-10-09T17:12:46.402Z,2.00
2022-10-09T17:17:50.629Z,1.00
2022-10-09T17:22:53.537Z,1.75
2022-10-09T17:27:56.208Z,2.00
2022-10-09T17:33:00.324Z,1.50
2022-10-09T17:38:03.067Z,2.00
2022-10-09T17:43:05.843Z,1.00
2022-10-09T17:48:10.837Z,2.00
2022-10-09T17:53:14.504Z,0.75
2022-10-09T17:58:17.554Z,1.50
2022-10-09T18:03:21.505Z,1.00
2022-10-09T18:08:24.200Z,1.00
2022-10-09T18:13:26.839Z,2.50
2022-10-09T18:18:30.781Z,1.50
2022-10-09T18:23:34.192Z,0.50
2022-10-09T18:28:36.967Z,1.00
2022-10-09T18:33:40.901Z,2.00
2022-10-09T18:38:43.496Z,1.00
2022-10-09T18:43:46.089Z,1.75
2022-10-09T18:48:51.853Z,1.25
2022-10-09T18:53:58.905Z,0.50
2022-10-09T18:59:04.474Z,1.50
2022-10-09T19:04:08.620Z,0.75
2022-10-09T19:09:11.478Z,1.00
2022-10-09T19:14:15.715Z,1.00
2022-10-09T19:19:20.408Z,1.00
2022-10-09T19:24:22.984Z,2.00
2022-10-09T19:29:25.923Z,1.00
2022-10-09T19:34:31.017Z,2.75
2022-10-09T19:39:33.713Z,1.75
2022-10-09T19:44:37.012Z,1.50
2022-10-09T19:49:41.087Z,1.50
2022-10-09T19:54:43.701Z,1.00
2022-10-09T19:59:47.836Z,2.00
2022-10-09T20:04:51.890Z,1.00
2022-10-09T20:09:54.582Z,1.00
2022-10-09T20:14:57.206Z,2.00
2022-10-09T20:20:03.734Z,1.50
2022-10-09T20:25:07.586Z,2.00
2022-10-09T20:30:11.405Z,2.00
2022-10-09T20:35:15.534Z,1.00
2022-10-09T20:40:18.612Z,1.00
2022-10-09T20:45:21.234Z,2.00
2022-10-09T20:50:25.283Z,2.25
2022-10-09T20:55:27.928Z,0.75
2022-10-09T21:00:30.716Z,1.50
2022-10-09T21:05:34.662Z,1.25
2022-10-09T21:10:44.530Z,0.25
2022-10-09T21:15:49.998Z,2.00
2022-10-09T21:20:54.049Z,1.50
2022-10-09T21:25:56.787Z,0.00
2022-10-09T21:30:59.372Z,1.00
2022-10-09T21:36:09.004Z,1.00
2022-10-09T21:41:11.638Z,0.25
2022-10-09T21:46:14.294Z,1.75
2022-10-09T21:51:18.328Z,1.00
2022-10-09T21:56:21.442Z,1.00
2022-10-09T22:01:24.078Z,1.25
2022-10-09T22:06:28.116Z,1.00
2022-10-09T22:11:30.696Z,0.25
2022-10-09T22:16:33.311Z,1.75
2022-10-09T22:21:37.333Z,1.00
2022-10-09T22:26:39.983Z,0.25
2022-10-09T22:31:42.585Z,1.25
2022-10-09T22:36:47.016Z,1.50
2022-10-09T22:41:49.627Z,1.00
2022-10-09T22:46:52.199Z,1.25
2022-10-09T22:51:56.187Z,1.00
2022-10-09T22:56:58.777Z,1.50
2022-10-09T23:02:01.384Z,1.00
2022-10-09T23:07:05.369Z,1.00
2022-10-09T23:12:07.982Z,1.50
2022-10-09T23:17:10.557Z,1.00
2022-10-09T23:22:14.565Z,0.75
2022-10-09T23:27:17.188Z,1.00
2022-10-09T23:32:19.767Z,1.00
2022-10-09T23:37:23.891Z,1.00
2022-10-09T23:42:26.658Z,1.00
2022-10-09T23:47:29.313Z,1.00
2022-10-09T23:52:33.856Z,0.50
2022-10-09T23:57:37.008Z,1.00
